Time;durP1;ratioP1;P1;durP2;ratioP2;P2;SDS_P1;SDS_P2;PMS_P1;PMS_P2;Temp;Humidity;BMP_temperature;BMP_pressure;BME280_temperature;BME280_humidity;BME280_pressure;Samples;Min_cycle;Max_cycle;Signal;HPM_P1;HPM_P2
2022/01/18 00:00:29;;;;;;;;;;;;;;;1.89;100.00;97438.56;1018819;29;20522;-73
2022/01/18 00:00:59;;;;;;;;;;;;;;;1.89;100.00;97445.53;1018394;29;19911;-74
2022/01/18 00:01:30;;;;;;;;;;;;;;;1.90;100.00;97439.38;1021564;28;19914;-74
2022/01/18 00:02:00;;;;;;;;;;;;;;;1.89;100.00;97437.78;1031586;28;19921;-75
2022/01/18 00:02:30;;;;;;;;;;;;;;;1.86;100.00;97441.50;1030302;28;19910;-72
2022/01/18 00:03:01;;;;;;;;;;;;;;;1.87;100.00;97444.88;1033644;28;20402;-73
2022/01/18 00:03:31;;;;;;;;;;;;;;;1.87;100.00;97439.72;1030663;28;19934;-71
2022/01/18 00:04:01;;;;;;;;;;;;;;;1.86;100.00;97433.72;1026640;28;19906;-73
2022/01/18 00:04:32;;;;;;;;;;;;;;;1.91;100.00;97446.16;1029017;28;19917;-76
2022/01/18 00:05:02;;;;;;;;;;;;;;;1.91;100.00;97445.38;1030283;28;19917;-73
2022/01/18 00:05:32;;;;;;;;;;;;;;;1.90;100.00;97449.72;1030321;28;19913;-75
2022/01/18 00:06:03;;;;;;;;;;;;;;;1.91;100.00;97450.53;1030664;28;19910;-74
2022/01/18 00:06:33;;;;;;;;;;;;;;;1.89;100.00;97450.72;1026408;28;19914;-73
2022/01/18 00:07:04;;;;;;;;;;;;;;;1.90;100.00;97449.72;1022332;28;19910;-73
2022/01/18 00:07:34;;;;;;;;;;;;;;;1.93;100.00;97453.78;1022727;28;20043;-73
2022/01/18 00:08:04;;;;;;;;;;;;;;;1.94;100.00;97456.19;1026493;28;19926;-74
2022/01/18 00:08:35;;;;;;;;;;;;;;;1.92;100.00;97452.19;1026492;28;19937;-74
2022/01/18 00:09:06;;;;;;;;;;;;;;;1.91;100.00;97450.53;1030477;28;19918;-73
2022/01/18 00:09:38;;;;;;;;;;;;;;;1.88;100.00;97449.91;1030652;28;19917;-74
2022/01/18 00:10:09;;;;;;;;;;;;;;;1.91;100.00;97450.53;1026652;28;20383;-74
2022/01/18 00:10:39;;;;;;;;;;;;;;;1.91;100.00;97453.94;1026619;28;19914;-73
2022/01/18 00:11:09;;;;;;;;;;;;;;;1.91;100.00;97450.53;1030498;28;19917;-74
2022/01/18 00:11:48;;;;;;;;;;;;;;;1.89;100.00;97450.72;1029278;28;19918;-74
2022/01/18 00:12:54;;;;;;;;;;;;;;;1.90;100.00;97462.69;1030595;28;19921;-75
2022/01/18 00:13:36;;;;;;;;;;;;;;;1.89;100.00;97455.91;1025689;28;19964;-73
2022/01/18 00:14:13;;;;;;;;;;;;;;;1.90;100.00;97460.09;1017998;29;20422;-74
2022/01/18 00:14:55;;;;;;;;;;;;;;;1.87;100.00;97460.41;1021782;29;19914;-72
2022/01/18 00:16:49;;;;;;;;;;;;;;;1.86;100.00;97456.22;1033135;28;19920;-75
2022/01/18 00:17:39;;;;;;;;;;;;;;;1.84;100.00;97455.56;1038571;28;19909;-75
2022/01/18 00:18:12;;;;;;;;;;;;;;;1.82;100.00;97452.34;1038586;28;19968;-74
2022/01/18 00:18:48;;;;;;;;;;;;;;;1.81;100.00;97461.06;1034777;28;19925;-74
2022/01/18 00:19:23;;;;;;;;;;;;;;;1.77;100.00;97458.00;1030544;28;19914;-75
2022/01/18 00:19:56;;;;;;;;;;;;;;;1.75;100.00;97462.56;1020369;29;19911;-73
2022/01/18 00:20:37;;;;;;;;;;;;;;;1.75;100.00;97461.75;1024466;28;19923;-73
2022/01/18 00:22:03;;;;;;;;;;;;;;;1.75;100.00;97469.50;1024607;28;19914;-75
2022/01/18 00:22:29;;;;;;;;;;;;;;;1.78;100.00;97466.59;1026102;28;19922;-74
2022/01/18 00:22:59;;;;;;;;;;;;;;;1.77;100.00;97470.94;1020842;29;19977;-73
2022/01/18 00:23:30;;;;;;;;;;;;;;;1.76;100.00;97468.53;1021305;29;19955;-74
2022/01/18 00:24:00;;;;;;;;;;;;;;;1.74;100.00;97470.47;1024972;28;19914;-74
2022/01/18 00:24:30;;;;;;;;;;;;;;;1.72;100.00;97468.06;1018697;28;19911;-74
2022/01/18 00:25:02;;;;;;;;;;;;;;;1.70;100.00;97469.97;1022637;28;19922;-75
2022/01/18 00:25:34;;;;;;;;;;;;;;;1.71;100.00;97478.53;1026417;28;19915;-73
2022/01/18 00:26:06;;;;;;;;;;;;;;;1.67;100.00;97474.69;1026576;28;20335;-73
2022/01/18 00:26:36;;;;;;;;;;;;;;;1.67;100.00;97470.31;1025574;28;19914;-74
2022/01/18 00:27:10;;;;;;;;;;;;;;;1.68;100.00;97474.53;1018533;29;19946;-75
2022/01/18 00:27:40;;;;;;;;;;;;;;;1.69;100.00;97470.97;1023714;28;19923;-73
2022/01/18 00:28:10;;;;;;;;;;;;;;;1.64;100.00;97471.47;1030340;28;20549;-74
2022/01/18 00:28:42;;;;;;;;;;;;;;;1.63;100.00;97474.19;1033152;28;20750;-73
2022/01/18 00:29:16;;;;;;;;;;;;;;;1.59;100.00;97471.13;1030573;28;20454;-74
2022/01/18 00:30:02;;;;;;;;;;;;;;;1.61;100.00;97473.53;1026493;28;19961;-75
2022/01/18 00:31:17;;;;;;;;;;;;;;;1.61;100.00;97471.78;1030561;28;19914;-74
2022/01/18 00:32:07;;;;;;;;;;;;;;;1.58;100.00;97476.47;1037649;28;19912;-74
2022/01/18 00:33:41;;;;;;;;;;;;;;;1.53;100.00;97474.34;1034605;28;20706;-74
2022/01/18 00:34:26;;;;;;;;;;;;;;;1.53;100.00;97476.94;1037731;28;19909;-73
2022/01/18 00:34:57;;;;;;;;;;;;;;;1.55;100.00;97480.19;1030347;28;19910;-72
2022/01/18 00:35:32;;;;;;;;;;;;;;;1.53;100.00;97482.13;1023597;28;20288;-72
2022/01/18 00:36:04;;;;;;;;;;;;;;;1.55;100.00;97481.97;1026946;28;20690;-74
2022/01/18 00:36:41;;;;;;;;;;;;;;;1.56;100.00;97488.75;1028147;28;20008;-73
2022/01/18 00:37:24;;;;;;;;;;;;;;;1.53;100.00;97484.72;1025873;28;19914;-74
2022/01/18 00:37:56;;;;;;;;;;;;;;;1.50;100.00;97479.84;1026374;28;19910;-76
2022/01/18 00:38:47;;;;;;;;;;;;;;;1.51;100.00;97483.25;1027631;28;19914;-75
2022/01/18 00:39:17;;;;;;;;;;;;;;;1.49;100.00;97478.25;1030993;28;20422;-74
2022/01/18 00:39:47;;;;;;;;;;;;;;;1.49;100.00;97478.25;1026472;28;19917;-74
2022/01/18 00:40:18;;;;;;;;;;;;;;;1.49;100.00;97480.03;1018517;29;19974;-74
2022/01/18 00:40:48;;;;;;;;;;;;;;;1.20;100.00;97446.88;1022381;29;19910;-75
2022/01/18 00:41:19;;;;;;;;;;;;;;;1.46;100.00;97483.75;1022548;29;19946;-75
2022/01/18 00:41:49;;;;;;;;;;;;;;;1.49;100.00;97486.00;1018515;29;20531;-74
2022/01/18 00:42:20;;;;;;;;;;;;;;;1.53;100.00;97483.91;1018509;29;19910;-75
2022/01/18 00:42:50;;;;;;;;;;;;;;;1.51;100.00;97486.66;1017552;29;20293;-73
2022/01/18 00:43:20;;;;;;;;;;;;;;;1.53;100.00;97489.06;1018556;29;19910;-72
2022/01/18 00:43:51;;;;;;;;;;;;;;;1.53;100.00;97489.06;1014550;29;19916;-75
2022/01/18 00:44:21;;;;;;;;;;;;;;;1.52;100.00;97496.03;1018553;29;20274;-75
2022/01/18 00:44:51;;;;;;;;;;;;;;;1.52;100.00;97487.47;1022160;29;19925;-74
2022/01/18 00:45:22;;;;;;;;;;;;;;;1.49;100.00;97493.78;1030583;28;19961;-74
2022/01/18 00:45:52;;;;;;;;;;;;;;;1.49;100.00;97501.53;1026198;28;19937;-74
2022/01/18 00:46:23;;;;;;;;;;;;;;;1.49;100.00;97493.78;1026590;28;19906;-73
2022/01/18 00:46:53;;;;;;;;;;;;;;;1.47;100.00;97494.88;1022160;29;20455;-73
2022/01/18 00:47:23;;;;;;;;;;;;;;;1.45;100.00;97499.44;1022642;28;19946;-73
2022/01/18 00:47:54;;;;;;;;;;;;;;;1.44;100.00;97501.19;1026316;28;19918;-73
2022/01/18 00:48:24;;;;;;;;;;;;;;;1.43;100.00;97502.16;1022485;28;19918;-73
2022/01/18 00:48:57;;;;;;;;;;;;;;;1.42;100.00;97498.78;1026156;28;19921;-73
2022/01/18 00:49:27;;;;;;;;;;;;;;;1.40;100.00;97503.28;1026470;28;20292;-74
2022/01/18 00:50:02;;;;;;;;;;;;;;;1.40;100.00;97508.47;1027015;28;19942;-73
2022/01/18 00:50:34;;;;;;;;;;;;;;;1.42;100.00;97508.31;1030393;28;20323;-73
2022/01/18 00:51:05;;;;;;;;;;;;;;;1.43;100.00;97504.75;1024927;28;19949;-73
2022/01/18 00:51:40;;;;;;;;;;;;;;;1.41;100.00;97509.28;1023573;28;19922;-74
2022/01/18 00:52:10;;;;;;;;;;;;;;;1.43;100.00;97509.94;1030472;28;19925;-76
2022/01/18 00:52:43;;;;;;;;;;;;;;;1.42;100.00;97498.78;1031425;28;19917;-74
2022/01/18 00:53:16;;;;;;;;;;;;;;;1.41;100.00;97509.28;1033917;28;20005;-73
2022/01/18 00:53:46;;;;;;;;;;;;;;;1.40;100.00;97510.25;1030678;28;19922;-73
2022/01/18 00:54:22;;;;;;;;;;;;;;;1.36;100.00;97506.38;1026342;28;20651;-72
2022/01/18 00:54:52;;;;;;;;;;;;;;;1.33;100.00;97501.50;1026332;28;20484;-75
2022/01/18 00:55:25;;;;;;;;;;;;;;;1.32;100.00;97502.50;1030501;28;19937;-74
2022/01/18 00:56:43;;;;;;;;;;;;;;;1.30;100.00;97499.25;1034686;28;20008;-76
2022/01/18 00:57:13;;;;;;;;;;;;;;;1.32;100.00;97502.50;1028881;28;19918;-73
2022/01/18 00:57:44;;;;;;;;;;;;;;;1.29;100.00;97502.81;1026442;28;20041;-72
2022/01/18 00:58:14;;;;;;;;;;;;;;;1.31;100.00;97500.88;1026290;28;20334;-73
2022/01/18 00:58:46;;;;;;;;;;;;;;;1.28;100.00;97501.19;1014467;29;19918;-73
2022/01/18 00:59:17;;;;;;;;;;;;;;;1.30;100.00;97499.25;1022181;29;19919;-73
2022/01/18 00:59:47;;;;;;;;;;;;;;;1.33;100.00;97504.09;1018432;29;19911;-75
2022/01/18 01:00:17;;;;;;;;;;;;;;;1.33;100.00;97506.69;1022389;29;20307;-75
2022/01/18 01:00:50;;;;;;;;;;;;;;;1.33;100.00;97507.50;1022811;28;19921;-74
2022/01/18 01:01:22;;;;;;;;;;;;;;;1.32;100.00;97507.66;1022900;28;20431;-74
2022/01/18 01:01:52;;;;;;;;;;;;;;;1.32;100.00;97512.84;1030197;28;20705;-76
2022/01/18 01:02:23;;;;;;;;;;;;;;;1.32;100.00;97499.91;1030606;28;19920;-72
2022/01/18 01:02:53;;;;;;;;;;;;;;;1.32;100.00;97505.88;1021521;28;19925;-73
2022/01/18 01:03:23;;;;;;;;;;;;;;;1.31;100.00;97501.69;1026341;28;19991;-73
2022/01/18 01:03:57;;;;;;;;;;;;;;;1.32;100.00;97507.66;1026045;28;19921;-74
2022/01/18 01:04:31;;;;;;;;;;;;;;;1.31;100.00;97506.06;1025271;28;19953;-73
2022/01/18 01:05:01;;;;;;;;;;;;;;;1.30;100.00;97507.00;1026171;28;19910;-72
2022/01/18 01:05:31;;;;;;;;;;;;;;;1.28;100.00;97511.53;1029200;28;20348;-72
2022/01/18 01:06:02;;;;;;;;;;;;;;;1.28;100.00;97512.34;1038616;28;19956;-72
2022/01/18 01:06:33;;;;;;;;;;;;;;;1.28;100.00;97511.53;1034191;28;19953;-74
2022/01/18 01:07:03;;;;;;;;;;;;;;;1.29;100.00;97515.75;1034357;28;19913;-70
2022/01/18 01:07:36;;;;;;;;;;;;;;;1.27;100.00;97515.88;1030326;28;19964;-74
2022/01/18 01:08:06;;;;;;;;;;;;;;;1.27;100.00;97515.88;1030242;28;19945;-72
2022/01/18 01:08:36;;;;;;;;;;;;;;;1.27;100.00;97517.66;1030689;28;19916;-72
2022/01/18 01:09:07;;;;;;;;;;;;;;;1.27;100.00;97520.25;1030751;28;19917;-75
2022/01/18 01:09:37;;;;;;;;;;;;;;;1.27;100.00;97520.25;1034206;28;19913;-74
2022/01/18 01:10:08;;;;;;;;;;;;;;;1.27;100.00;97515.06;1030218;28;20327;-74
2022/01/18 01:10:38;;;;;;;;;;;;;;;1.26;100.00;97519.44;1026429;28;20065;-73
2022/01/18 01:11:09;;;;;;;;;;;;;;;1.26;100.00;97519.44;1026248;28;19917;-72
2022/01/18 01:11:40;;;;;;;;;;;;;;;1.25;100.00;97519.63;1028090;28;19921;-73
2022/01/18 01:12:11;;;;;;;;;;;;;;;1.24;100.00;97518.81;1029924;28;20004;-72
2022/01/18 01:12:42;;;;;;;;;;;;;;;1.24;100.00;97516.22;1028520;28;19914;-75
2022/01/18 01:13:12;;;;;;;;;;;;;;;1.26;100.00;97516.06;1030027;28;19913;-74
2022/01/18 01:13:44;;;;;;;;;;;;;;;1.28;100.00;97519.31;1034351;28;19917;-73
2022/01/18 01:14:19;;;;;;;;;;;;;;;1.28;100.00;97519.31;1026495;28;20638;-71
2022/01/18 01:14:52;;;;;;;;;;;;;;;1.32;100.00;97518.00;1026479;28;20059;-72
2022/01/18 01:15:25;;;;;;;;;;;;;;;1.29;100.00;97523.50;1014454;29;19938;-74
2022/01/18 01:16:19;;;;;;;;;;;;;;;1.27;100.00;97509.91;1019633;29;19922;-73
2022/01/18 01:16:57;;;;;;;;;;;;;;;1.29;100.00;97520.91;1025461;28;19917;-73
2022/01/18 01:17:42;;;;;;;;;;;;;;;1.32;100.00;97515.41;1030677;28;19914;-72
2022/01/18 01:18:30;;;;;;;;;;;;;;;1.30;100.00;97517.34;1029475;28;19909;-73
2022/01/18 01:32:17;;;;;;;;;;;;;;;1.28;100.00;97534.81;1031045;28;19937;-71
2022/01/18 01:37:15;;;;;;;;;;;;;;;1.33;100.00;97535.13;1026797;28;19960;-73
2022/01/18 01:42:13;;;;;;;;;;;;;;;1.32;100.00;97542.09;1031977;28;19938;-72
2022/01/18 01:43:11;;;;;;;;;;;;;;;1.32;100.00;97536.91;1033294;28;19918;-72
2022/01/18 01:44:42;;;;;;;;;;;;;;;1.32;100.00;97543.88;1022552;29;19914;-73
2022/01/18 01:45:16;;;;;;;;;;;;;;;1.33;100.00;97540.31;1017408;29;20219;-73
2022/01/18 01:45:46;;;;;;;;;;;;;;;1.30;100.00;97546.59;1024042;28;19915;-71
2022/01/18 01:46:18;;;;;;;;;;;;;;;1.31;100.00;97547.44;1023036;28;20803;-73
2022/01/18 01:46:48;;;;;;;;;;;;;;;1.31;100.00;97550.00;1020708;28;19918;-72
2022/01/18 01:47:21;;;;;;;;;;;;;;;1.30;100.00;97551.75;1026866;28;20709;-74
2022/01/18 01:47:53;;;;;;;;;;;;;;;1.29;100.00;97550.16;1023450;28;19922;-73
2022/01/18 01:48:23;;;;;;;;;;;;;;;1.30;100.00;97551.75;1027624;28;19919;-72
2022/01/18 01:48:56;;;;;;;;;;;;;;;1.29;100.00;97555.31;1023760;28;19941;-72
2022/01/18 01:49:27;;;;;;;;;;;;;;;1.29;100.00;97552.75;1025351;28;19925;-73
2022/01/18 01:49:57;;;;;;;;;;;;;;;1.28;100.00;97558.88;1027318;28;19918;-73
2022/01/18 01:50:39;;;;;;;;;;;;;;;1.29;100.00;97555.31;1027666;28;20287;-74
2022/01/18 01:51:10;;;;;;;;;;;;;;;1.32;100.00;97561.97;1032935;28;20547;-74
2022/01/18 01:51:40;;;;;;;;;;;;;;;1.30;100.00;97559.53;1032579;28;20032;-72
2022/01/18 01:52:11;;;;;;;;;;;;;;;1.30;100.00;97556.13;1035117;28;19968;-71
2022/01/18 01:52:41;;;;;;;;;;;;;;;1.32;100.00;97554.22;1030874;28;19910;-71
2022/01/18 01:53:12;;;;;;;;;;;;;;;1.31;100.00;97553.41;1031356;28;19969;-70
2022/01/18 01:53:42;;;;;;;;;;;;;;;1.33;100.00;97555.81;1031604;28;20546;-76
2022/01/18 01:54:12;;;;;;;;;;;;;;;1.33;100.00;97553.22;1026909;28;19925;-71
2022/01/18 01:54:43;;;;;;;;;;;;;;;1.33;100.00;97556.63;1026622;28;19933;-72
2022/01/18 01:55:13;;;;;;;;;;;;;;;1.33;100.00;97555.81;1028094;28;20370;-72
2022/01/18 01:55:44;;;;;;;;;;;;;;;1.33;100.00;97554.03;1032059;28;19976;-72
2022/01/18 01:56:14;;;;;;;;;;;;;;;1.33;100.00;97542.88;1027852;28;20505;-72
2022/01/18 01:56:44;;;;;;;;;;;;;;;1.33;100.00;97553.22;1027742;28;19964;-72
2022/01/18 01:57:15;;;;;;;;;;;;;;;1.32;100.00;97549.03;1027748;28;19925;-72
2022/01/18 01:57:45;;;;;;;;;;;;;;;1.31;100.00;97550.00;1031532;28;20354;-73
2022/01/18 01:58:15;;;;;;;;;;;;;;;1.31;100.00;97544.84;1036116;28;19905;-72
2022/01/18 01:58:46;;;;;;;;;;;;;;;1.31;100.00;97543.06;1032143;28;20017;-72
2022/01/18 01:59:16;;;;;;;;;;;;;;;1.32;100.00;97549.03;1032398;28;19918;-72
2022/01/18 01:59:46;;;;;;;;;;;;;;;1.32;100.00;97546.44;1035887;28;19917;-73
2022/01/18 02:00:18;;;;;;;;;;;;;;;1.34;100.00;97552.25;1032087;28;20012;-72
2022/01/18 02:00:49;;;;;;;;;;;;;;;1.36;100.00;97552.91;1036266;28;20290;-71
2022/01/18 02:01:19;;;;;;;;;;;;;;;1.34;100.00;97550.50;1035982;28;20321;-70
2022/01/18 02:01:49;;;;;;;;;;;;;;;1.32;100.00;97549.03;1036059;28;19972;-71
2022/01/18 02:02:20;;;;;;;;;;;;;;;1.32;100.00;97554.22;1028352;28;20426;-71
2022/01/18 02:02:50;;;;;;;;;;;;;;;1.33;100.00;97550.66;1031154;28;19917;-74
2022/01/18 02:03:20;;;;;;;;;;;;;;;1.33;100.00;97545.47;1028221;28;19914;-75
2022/01/18 02:03:51;;;;;;;;;;;;;;;1.32;100.00;97543.88;1031867;28;19913;-72
2022/01/18 02:04:21;;;;;;;;;;;;;;;1.33;100.00;97548.06;1036097;28;19961;-73
2022/01/18 02:04:51;;;;;;;;;;;;;;;1.33;100.00;97550.66;1031826;28;19918;-72
2022/01/18 02:05:22;;;;;;;;;;;;;;;1.32;100.00;97543.88;1024077;29;19921;-72
2022/01/18 02:05:53;;;;;;;;;;;;;;;1.36;100.00;97548.56;1024011;28;19922;-72
2022/01/18 02:06:23;;;;;;;;;;;;;;;1.34;100.00;97542.75;1028139;28;19985;-71
2022/01/18 02:06:54;;;;;;;;;;;;;;;1.39;100.00;97542.25;1028199;28;20384;-70
2022/01/18 02:07:24;;;;;;;;;;;;;;;1.35;100.00;97549.53;1036241;28;19917;-71
2022/01/18 02:07:54;;;;;;;;;;;;;;;1.35;100.00;97549.53;1035966;28;20294;-73
2022/01/18 02:08:24;;;;;;;;;;;;;;;1.12;100.00;97518.28;1036040;28;19917;-72
2022/01/18 02:08:55;;;;;;;;;;;;;;;1.32;100.00;97549.84;1032026;28;19914;-72
2022/01/18 02:09:25;;;;;;;;;;;;;;;1.32;100.00;97552.44;1032022;28;19910;-71
2022/01/18 02:09:55;;;;;;;;;;;;;;;1.32;100.00;97549.03;1031619;28;19949;-73
2022/01/18 02:10:26;;;;;;;;;;;;;;;1.31;100.00;97547.44;1032183;28;19914;-72
2022/01/18 02:10:56;;;;;;;;;;;;;;;1.31;100.00;97550.00;1027973;28;19922;-73
2022/01/18 02:11:26;;;;;;;;;;;;;;;1.29;100.00;97549.34;1028005;28;20407;-71
2022/01/18 02:11:57;;;;;;;;;;;;;;;1.28;100.00;97540.00;1035840;28;19909;-73
2022/01/18 02:12:27;;;;;;;;;;;;;;;1.28;100.00;97547.75;1031821;28;19910;-70
2022/01/18 02:12:58;;;;;;;;;;;;;;;1.34;100.00;97544.50;1031411;28;19925;-72
2022/01/18 02:13:28;;;;;;;;;;;;;;;1.30;100.00;97538.03;1027995;28;20359;-72
2022/01/18 02:13:59;;;;;;;;;;;;;;;1.31;100.00;97544.84;1031829;28;19969;-73
2022/01/18 02:14:31;;;;;;;;;;;;;;;1.10;100.00;97509.06;1032038;28;19921;-72
2022/01/18 02:15:11;;;;;;;;;;;;;;;1.29;100.00;97544.19;1027793;28;20030;-73
2022/01/18 02:15:49;;;;;;;;;;;;;;;1.31;100.00;97527.53;1029583;28;19933;-72
2022/01/18 02:22:06;;;;;;;;;;;;;;;1.29;100.00;97529.47;1031347;28;20012;-73
2022/01/18 02:22:36;;;;;;;;;;;;;;;1.29;100.00;97534.63;1031635;28;20391;-71
2022/01/18 02:23:07;;;;;;;;;;;;;;;1.29;100.00;97529.47;1031621;28;19917;-72
2022/01/18 02:23:37;;;;;;;;;;;;;;;1.29;100.00;97534.63;1033175;28;19918;-71
2022/01/18 02:24:07;;;;;;;;;;;;;;;1.30;100.00;97531.09;1027924;28;19916;-72
2022/01/18 02:24:38;;;;;;;;;;;;;;;1.28;100.00;97532.22;1023770;29;19911;-72
2022/01/18 02:25:08;;;;;;;;;;;;;;;1.27;100.00;97530.59;1023969;28;19911;-73
2022/01/18 02:25:38;;;;;;;;;;;;;;;1.27;100.00;97530.59;1023961;28;19918;-72
2022/01/18 02:26:09;;;;;;;;;;;;;;;1.28;100.00;97527.06;1031986;28;19910;-70
2022/01/18 02:26:39;;;;;;;;;;;;;;;1.26;100.00;97529.78;1035606;28;19913;-75
2022/01/18 02:27:09;;;;;;;;;;;;;;;1.25;100.00;97527.38;1036020;28;19910;-70
2022/01/18 02:27:39;;;;;;;;;;;;;;;1.28;100.00;97520.09;1032031;28;19909;-71
2022/01/18 02:28:10;;;;;;;;;;;;;;;1.04;100.00;97489.84;1031852;28;19920;-75
2022/01/18 02:28:40;;;;;;;;;;;;;;;1.26;100.00;97518.63;1027229;28;19925;-72
2022/01/18 02:29:10;;;;;;;;;;;;;;;1.26;100.00;97527.19;1023814;29;20373;-70
2022/01/18 02:29:41;;;;;;;;;;;;;;;1.27;100.00;97520.25;1023874;29;19918;-71
2022/01/18 02:30:11;;;;;;;;;;;;;;;1.25;100.00;97522.19;1023644;29;20288;-74
2022/01/18 02:30:41;;;;;;;;;;;;;;;1.25;100.00;97517.84;1027840;28;20423;-74
2022/01/18 02:31:12;;;;;;;;;;;;;;;1.25;100.00;97522.19;1035747;28;19910;-75
2022/01/18 02:31:42;;;;;;;;;;;;;;;1.25;100.00;97523.00;1031858;28;19918;-74
2022/01/18 02:32:12;;;;;;;;;;;;;;;1.27;100.00;97520.25;1027730;28;19914;-72
2022/01/18 02:32:43;;;;;;;;;;;;;;;1.23;100.00;97519.75;1031613;28;19921;-73
2022/01/18 02:33:13;;;;;;;;;;;;;;;1.23;100.00;97524.94;1027334;28;20392;-72
2022/01/18 02:33:43;;;;;;;;;;;;;;;1.21;100.00;97526.88;1023895;28;19983;-72
2022/01/18 02:34:15;;;;;;;;;;;;;;;1.22;100.00;97522.50;1027744;28;19938;-72
2022/01/18 02:34:45;;;;;;;;;;;;;;;1.25;100.00;97524.78;1031969;28;19914;-72
2022/01/18 02:35:15;;;;;;;;;;;;;;;1.25;100.00;97523.00;1031928;28;20517;-73
2022/01/18 02:35:46;;;;;;;;;;;;;;;1.24;100.00;97525.72;1039868;28;19917;-72
2022/01/18 02:36:16;;;;;;;;;;;;;;;1.25;100.00;97530.75;1031821;28;19906;-72
2022/01/18 02:36:46;;;;;;;;;;;;;;;1.26;100.00;97523.81;1023838;29;19911;-72
2022/01/18 02:37:17;;;;;;;;;;;;;;;1.25;100.00;97523.00;1019725;29;19913;-72
2022/01/18 02:37:53;;;;;;;;;;;;;;;1.25;100.00;97528.19;1019809;29;20316;-73
2022/01/18 02:38:23;;;;;;;;;;;;;;;1.26;100.00;97528.97;1024720;28;20311;-74
2022/01/18 02:38:53;;;;;;;;;;;;;;;1.25;100.00;97524.78;1029454;28;19953;-72
2022/01/18 02:39:25;;;;;;;;;;;;;;;1.25;100.00;97522.19;1036556;28;19956;-71
2022/01/18 02:39:55;;;;;;;;;;;;;;;1.23;100.00;97526.72;1040052;28;19924;-72
2022/01/18 02:40:25;;;;;;;;;;;;;;;1.24;100.00;97523.16;1036046;28;20577;-74
2022/01/18 02:40:57;;;;;;;;;;;;;;;1.21;100.00;97519.13;1027615;28;20408;-72
2022/01/18 02:41:31;;;;;;;;;;;;;;;1.21;100.00;97523.47;1027784;28;19922;-72
2022/01/18 02:42:03;;;;;;;;;;;;;;;1.19;100.00;97523.63;1027785;28;19911;-72
2022/01/18 02:42:43;;;;;;;;;;;;;;;1.21;100.00;97528.63;1030190;28;19981;-73
2022/01/18 02:44:05;;;;;;;;;;;;;;;1.21;100.00;97526.06;1040338;28;19955;-71
2022/01/18 02:44:36;;;;;;;;;;;;;;;1.25;100.00;97524.78;1035754;28;19916;-73
2022/01/18 02:45:06;;;;;;;;;;;;;;;1.24;100.00;97521.41;1035899;28;19901;-71
2022/01/18 02:45:36;;;;;;;;;;;;;;;1.21;100.00;97526.06;1027758;28;20017;-72
2022/01/18 02:46:07;;;;;;;;;;;;;;;1.26;100.00;97523.81;1023700;29;19915;-72
2022/01/18 02:46:38;;;;;;;;;;;;;;;1.22;100.00;97527.69;1023892;29;19907;-71
2022/01/18 02:47:09;;;;;;;;;;;;;;;1.22;100.00;97528.50;1024277;28;19919;-70
2022/01/18 02:47:39;;;;;;;;;;;;;;;1.21;100.00;97523.47;1023868;28;20222;-70
2022/01/18 02:48:09;;;;;;;;;;;;;;;1.20;100.00;97524.44;1027906;28;20009;-73
2022/01/18 02:48:40;;;;;;;;;;;;;;;1.19;100.00;97523.63;1019856;29;19919;-71
2022/01/18 02:49:10;;;;;;;;;;;;;;;1.18;100.00;97528.00;1019887;29;19946;-72
2022/01/18 02:49:40;;;;;;;;;;;;;;;1.19;100.00;97523.63;1023633;29;20005;-73
2022/01/18 02:50:11;;;;;;;;;;;;;;;1.19;100.00;97526.22;1023825;29;20476;-71
2022/01/18 02:50:41;;;;;;;;;;;;;;;1.18;100.00;97528.00;1031863;28;19918;-72
2022/01/18 02:51:11;;;;;;;;;;;;;;;1.20;100.00;97529.63;1031580;28;20009;-72
2022/01/18 02:51:42;;;;;;;;;;;;;;;1.19;100.00;97531.41;1031583;28;19918;-74
2022/01/18 02:52:12;;;;;;;;;;;;;;;1.21;100.00;97531.22;1027741;28;19914;-72
2022/01/18 02:52:42;;;;;;;;;;;;;;;1.21;100.00;97526.88;1031562;28;20032;-72
2022/01/18 02:53:13;;;;;;;;;;;;;;;1.21;100.00;97536.38;1031450;28;19953;-72
2022/01/18 02:54:00;;;;;;;;;;;;;;;1.21;100.00;97534.63;1027918;28;20315;-72
2022/01/18 02:54:30;;;;;;;;;;;;;;;1.20;100.00;97532.19;1025132;28;19910;-72
2022/01/18 02:55:01;;;;;;;;;;;;;;;1.21;100.00;97536.38;1030269;28;19911;-72
2022/01/18 02:55:31;;;;;;;;;;;;;;;1.22;100.00;97538.84;1024023;29;19911;-71
2022/01/18 02:56:01;;;;;;;;;;;;;;;1.22;100.00;97538.03;1023801;29;19922;-71
2022/01/18 02:56:43;;;;;;;;;;;;;;;1.23;100.00;97539.63;1023852;28;20267;-71
2022/01/18 02:57:16;;;;;;;;;;;;;;;1.25;100.00;97538.53;1029402;28;19906;-73
2022/01/18 02:57:56;;;;;;;;;;;;;;;1.28;100.00;97538.19;1028018;28;20074;-70
2022/01/18 02:58:31;;;;;;;;;;;;;;;1.26;100.00;97539.31;1030981;28;19910;-72
2022/01/18 02:59:13;;;;;;;;;;;;;;;1.25;100.00;97538.53;1031879;28;19953;-72
2022/01/18 02:59:48;;;;;;;;;;;;;;;1.26;100.00;97534.16;1029196;28;20378;-73
2022/01/18 03:00:27;;;;;;;;;;;;;;;1.25;100.00;97533.34;1030639;28;19914;-70
2022/01/18 03:03:42;;;;;;;;;;;;;;;1.27;100.00;97535.75;1035193;28;20774;-72
2022/01/18 03:04:13;;;;;;;;;;;;;;;1.29;100.00;97532.06;1030583;28;19914;-72
2022/01/18 03:04:43;;;;;;;;;;;;;;;1.31;100.00;97532.72;1025527;28;19926;-75
2022/01/18 03:05:14;;;;;;;;;;;;;;;1.29;100.00;97526.09;1018744;29;19957;-71
2022/01/18 03:05:45;;;;;;;;;;;;;;;1.28;100.00;97532.22;1018985;29;19921;-71
2022/01/18 03:06:15;;;;;;;;;;;;;;;1.27;100.00;97530.59;1015130;29;19915;-71
2022/01/18 03:06:45;;;;;;;;;;;;;;;1.27;100.00;97531.41;1023015;28;19914;-73
2022/01/18 03:07:16;;;;;;;;;;;;;;;1.31;100.00;97527.53;1030993;28;20433;-71
2022/01/18 03:07:46;;;;;;;;;;;;;;;1.33;100.00;97538.53;1035053;28;19925;-72
2022/01/18 03:08:17;;;;;;;;;;;;;;;1.32;100.00;97529.16;1038574;28;19988;-74
2022/01/18 03:08:47;;;;;;;;;;;;;;;1.31;100.00;97527.53;1035026;28;19920;-72
2022/01/18 03:09:18;;;;;;;;;;;;;;;1.28;100.00;97527.88;1034982;28;20481;-70
2022/01/18 03:09:48;;;;;;;;;;;;;;;1.29;100.00;97529.47;1035011;28;19928;-73
2022/01/18 03:10:18;;;;;;;;;;;;;;;1.29;100.00;97523.50;1034896;28;19961;-74
2022/01/18 03:10:49;;;;;;;;;;;;;;;1.29;100.00;97526.88;1034993;28;19910;-72
2022/01/18 03:11:19;;;;;;;;;;;;;;;1.29;100.00;97533.84;1030818;28;19953;-73
2022/01/18 03:11:49;;;;;;;;;;;;;;;1.25;100.00;97529.97;1026672;28;19925;-72
2022/01/18 03:12:19;;;;;;;;;;;;;;;1.27;100.00;97535.75;1026695;28;19910;-74
2022/01/18 03:12:50;;;;;;;;;;;;;;;1.26;100.00;97534.16;1021823;29;19930;-76
2022/01/18 03:13:20;;;;;;;;;;;;;;;1.25;100.00;97530.75;1022616;28;19918;-75
2022/01/18 03:13:51;;;;;;;;;;;;;;;1.26;100.00;97536.75;1022644;29;20404;-72
2022/01/18 03:14:21;;;;;;;;;;;;;;;1.25;100.00;97541.09;1018981;29;19926;-72
2022/01/18 03:14:51;;;;;;;;;;;;;;;1.25;100.00;97532.53;1022358;29;19919;-73
2022/01/18 03:15:22;;;;;;;;;;;;;;;1.25;100.00;97537.72;1026680;28;19914;-72
2022/01/18 03:15:52;;;;;;;;;;;;;;;1.26;100.00;97537.53;1018872;29;20436;-72
2022/01/18 03:16:22;;;;;;;;;;;;;;;1.27;100.00;97535.75;1022911;29;19926;-74
2022/01/18 03:16:52;;;;;;;;;;;;;;;1.26;100.00;97537.53;1018521;29;19915;-73
2022/01/18 03:17:23;;;;;;;;;;;;;;;1.25;100.00;97533.34;1022984;28;19923;-74
2022/01/18 03:17:53;;;;;;;;;;;;;;;1.27;100.00;97531.41;1022816;28;19918;-72
2022/01/18 03:18:23;;;;;;;;;;;;;;;1.23;100.00;97531.88;1026769;28;20396;-71
2022/01/18 03:18:54;;;;;;;;;;;;;;;1.27;100.00;97530.59;1026564;28;19918;-72
2022/01/18 03:19:24;;;;;;;;;;;;;;;1.29;100.00;97531.25;1030952;28;19917;-72
2022/01/18 03:19:54;;;;;;;;;;;;;;;1.26;100.00;97534.97;1034686;28;19918;-71
2022/01/18 03:20:25;;;;;;;;;;;;;;;1.26;100.00;97534.16;1026889;28;19922;-73
2022/01/18 03:20:55;;;;;;;;;;;;;;;1.25;100.00;97537.72;1022582;28;19943;-72
2022/01/18 03:21:26;;;;;;;;;;;;;;;1.26;100.00;97536.75;1022983;28;19946;-72
2022/01/18 03:21:57;;;;;;;;;;;;;;;1.26;100.00;97534.16;1022705;28;19919;-72
2022/01/18 03:22:28;;;;;;;;;;;;;;;1.27;100.00;97535.75;1030880;28;19914;-72
2022/01/18 03:22:58;;;;;;;;;;;;;;;1.26;100.00;97547.88;1026235;28;20679;-72
2022/01/18 03:23:29;;;;;;;;;;;;;;;1.27;100.00;97540.94;1026591;28;19946;-73
2022/01/18 03:24:12;;;;;;;;;;;;;;;1.25;100.00;97540.31;1022732;29;20080;-72
2022/01/18 03:24:51;;;;;;;;;;;;;;;1.25;100.00;97548.88;1026551;28;20164;-72